Forside
METAR-TAF:

METAR-TAF

Lufthavne :

Jonesboro, Arkansas, USA

Breddekreds: 35-50-14N, længdekreds: 090-38-35W, højde: 79 m

Aktuelle vejr

Denne rapport blev lavet for 42 minutter siden, kl. 16:53 UTC
Vind 12 kt fra østsydøst
Temperatur -1°C
Fugtighed 69%
Tryk 1031 hPa
Sigt: 14.5 km
skyfri
let sne

METAR: KJBR 211653Z AUTO 11012KT 9SM -SN CLR M01/M06 A3045 RMK AO2 SLP315 P0000 T10111061 $

Tid: 11:35 (17:35 UTC)

Vejrudsigter

Denne rapport blev lavet for 9 minutter siden, kl. 17:26 UTC
Foreløbig gælder fra 21 på 18 UTC til 22 på 18 UTC
Vind 11 kt fra østsydøst
Sigt: 10 km
Brudte skyer i en højde af 25000 ft
Fra 22 på 0100 UTC
Vind 9 kt fra østsydøst
Sigt: 10 km
skyfri
Fra 22 på 1000 UTC
Vind 11 kt fra sydøst
Sigt: 10 km
Overskyet i en højde af 2500 ft
Fra 22 på 1500 UTC
Vind 16 kt fra sydsydøst med vindstød på up til 23 kt
Sigt: 10 km
Overskyet i en højde af 1500 ft
byger i nærheden

TAF: KJBR 211726Z 2118/2218 11011KT P6SM BKN250 FM220100 12009KT P6SM SKC FM221000 14011KT P6SM OVC025 FM221500 16016G23KT P6SM VCSH OVC015

Vejrobservationer og prognoser fra mere end 4000 lufthavne (METAR og TAF).

De gule og røde prikker repræsenterer de meteorologiske stationer.

Flyt musen over at se navnet på stationen.

Så klik over at se vejr observationer og prognoser.

At skifte det kort: Klik på de grønne knapper med et sort kors for at zoome ind; på den grønne knap med en bindestreg for at zoome ud; eller på de grønne pile for tilstødende kort.


METAR-TAF: